Time;durP1;ratioP1;P1;durP2;ratioP2;P2;SDS_P1;SDS_P2;PMS_P1;PMS_P2;Temp;Humidity;BMP_temperature;BMP_pressure;BME280_temperature;BME280_humidity;BME280_pressure;Samples;Min_cycle;Max_cycle;Signal;HPM_P1;HPM_P2
2022/08/03 00:00:19;;;;;;;3.78;2.08;;;;;;;22.67;48.88;99895.75;7619870;32;37768;-74
2022/08/03 00:04:35;;;;;;;4.45;2.20;;;;;;;22.47;49.93;99912.25;7633439;32;38200;-75
2022/08/03 00:08:51;;;;;;;3.75;2.10;;;;;;;22.59;49.97;99896.69;7633466;32;40188;-75
2022/08/03 00:13:07;;;;;;;3.28;2.30;;;;;;;22.52;50.09;99900.06;7633395;32;40828;-76
2022/08/03 00:17:23;;;;;;;3.75;2.17;;;;;;;22.35;50.54;99895.56;7620137;32;38014;-74
2022/08/03 00:21:39;;;;;;;2.85;2.00;;;;;;;22.28;50.86;99896.16;7633297;32;37094;-74
2022/08/03 00:25:56;;;;;;;5.57;1.90;;;;;;;22.24;50.75;99897.97;7633142;32;40100;-72
2022/08/03 00:30:12;;;;;;;4.30;2.20;;;;;;;22.07;51.28;99899.00;7633338;32;40697;-73
2022/08/03 00:34:31;;;;;;;6.28;2.42;;;;;;;22.01;51.13;99897.62;7633313;32;38495;-73
2022/08/03 00:39:07;;;;;;;2.20;1.98;;;;;;;22.12;50.61;99907.09;7632751;32;37055;-73
2022/08/03 00:43:28;;;;;;;2.72;2.40;;;;;;;22.19;50.46;99911.28;7633283;32;39474;-74
2022/08/03 00:47:45;;;;;;;4.12;2.53;;;;;;;22.19;50.73;99902.97;7633142;32;40712;-73
2022/08/03 00:52:01;;;;;;;2.65;2.40;;;;;;;22.15;50.88;99905.62;7632576;32;38112;-74
2022/08/03 00:56:25;;;;;;;4.05;2.30;;;;;;;21.88;51.87;99905.12;7594545;32;37521;-73
2022/08/03 01:00:41;;;;;;;4.05;2.10;;;;;;;21.75;52.66;99909.06;7606414;32;39793;-74
2022/08/03 01:04:57;;;;;;;3.42;2.50;;;;;;;21.83;52.09;99910.09;7606903;32;39578;-74
2022/08/03 01:09:27;;;;;;;2.72;2.40;;;;;;;21.68;52.83;99920.72;7606780;32;38320;-74
2022/08/03 01:13:47;;;;;;;4.85;2.50;;;;;;;21.72;53.11;99910.53;7594476;32;37127;-73
2022/08/03 01:18:37;;;;;;;4.95;2.60;;;;;;;21.57;53.44;99925.06;7606542;32;40257;-75
2022/08/03 01:23:26;;;;;;;4.30;2.25;;;;;;;21.54;53.57;99925.75;7611519;32;40774;-74
2022/08/03 01:28:25;;;;;;;3.12;2.42;;;;;;;21.65;53.09;99931.69;7632753;32;37964;-74
2022/08/03 01:32:57;;;;;;;2.42;2.08;;;;;;;21.65;53.05;99929.72;7621452;32;37330;-75
2022/08/03 01:37:21;;;;;;;3.92;2.47;;;;;;;21.74;53.05;99930.44;7632721;32;39438;-73
2022/08/03 01:42:06;;;;;;;3.90;2.30;;;;;;;21.46;54.23;99941.34;7619306;32;39831;-73
2022/08/03 01:46:24;;;;;;;3.90;2.65;;;;;;;21.44;54.61;99937.25;7620481;32;37754;-72
2022/08/03 01:50:41;;;;;;;4.50;2.70;;;;;;;21.28;55.06;99937.88;7618749;32;37089;-74
2022/08/03 01:54:57;;;;;;;3.20;2.62;;;;;;;21.26;55.49;99934.63;7619273;32;39746;-73
2022/08/03 01:59:15;;;;;;;4.62;2.60;;;;;;;21.20;55.61;99931.28;7618976;32;40105;-74
2022/08/03 02:03:35;;;;;;;4.05;2.35;;;;;;;21.09;56.05;99926.47;7618627;32;37549;-74
2022/08/03 02:07:51;;;;;;;3.42;2.42;;;;;;;21.23;55.49;99929.81;7632383;32;36816;-73
2022/08/03 02:12:12;;;;;;;2.90;2.22;;;;;;;21.25;55.21;99924.72;7631053;32;40115;-73
2022/08/03 02:16:30;;;;;;;4.12;2.78;;;;;;;21.42;54.44;99920.97;7619120;32;40134;-73
2022/08/03 02:20:46;;;;;;;4.70;3.17;;;;;;;21.46;54.24;99921.09;7617895;32;38015;-73
2022/08/03 02:25:02;;;;;;;3.97;2.90;;;;;;;21.30;54.92;99929.22;7618650;32;37898;-73
2022/08/03 02:29:23;;;;;;;5.25;3.30;;;;;;;21.41;54.54;99921.31;7632119;32;40002;-73
2022/08/03 02:34:05;;;;;;;4.30;3.10;;;;;;;21.54;54.25;99926.59;7620620;32;40573;-73
2022/08/03 02:38:27;;;;;;;5.75;3.47;;;;;;;21.41;54.77;99929.62;7618864;32;37651;-73
2022/08/03 02:42:44;;;;;;;7.25;3.67;;;;;;;21.52;54.43;99922.50;7631828;32;37076;-73
2022/08/03 02:47:06;;;;;;;5.10;2.97;;;;;;;21.16;56.24;99922.03;7618491;32;39259;-74
2022/08/03 02:51:22;;;;;;;5.07;3.55;;;;;;;20.96;56.87;99923.66;7618103;32;40166;-72
2022/08/03 02:55:39;;;;;;;4.22;3.00;;;;;;;20.93;56.98;99924.31;7631419;32;37946;-74
2022/08/03 03:00:00;;;;;;;8.82;3.53;;;;;;;21.13;56.24;99922.69;7631506;32;38175;-73
2022/08/03 03:04:17;;;;;;;4.43;3.08;;;;;;;20.99;56.56;99922.19;7618187;32;39378;-72
2022/08/03 03:08:35;;;;;;;5.72;3.50;;;;;;;21.01;56.45;99914.34;7631155;32;40741;-73
2022/08/03 03:12:56;;;;;;;5.35;3.28;;;;;;;21.07;56.39;99923.25;7617625;32;37205;-74
2022/08/03 03:17:14;;;;;;;5.72;3.33;;;;;;;20.93;57.28;99929.88;7618013;32;37104;-73
2022/08/03 03:21:30;;;;;;;4.70;3.30;;;;;;;20.92;57.44;99924.66;7619643;32;39284;-74
2022/08/03 03:25:47;;;;;;;6.57;3.60;;;;;;;20.92;57.53;99928.25;7626202;32;40159;-73
2022/08/03 03:30:04;;;;;;;7.80;3.62;;;;;;;21.05;57.09;99917.25;7626254;32;37782;-73
2022/08/03 03:34:20;;;;;;;5.85;3.28;;;;;;;20.89;57.40;99923.38;7639469;32;37380;-73
2022/08/03 03:38:37;;;;;;;6.25;4.10;;;;;;;20.76;58.57;99925.25;7626063;32;39445;-73
2022/08/03 03:42:53;;;;;;;5.72;3.55;;;;;;;20.78;58.44;99928.53;7639206;32;40913;-74
2022/08/03 03:47:09;;;;;;;5.75;3.95;;;;;;;20.73;58.70;99927.91;7638988;32;37968;-73
2022/08/03 03:51:28;;;;;;;6.47;3.90;;;;;;;20.88;58.16;99929.28;7639201;32;36068;-73
2022/08/03 03:55:44;;;;;;;6.05;3.75;;;;;;;20.75;58.81;99928.41;7638935;32;39397;-74
2022/08/03 04:00:18;;;;;;;7.05;3.72;;;;;;;20.70;59.28;99932.16;7638756;32;39149;-71
2022/08/03 04:13:53;;;;;;;6.87;3.40;;;;;;;20.95;59.15;99933.09;7626813;32;39345;-74
2022/08/03 04:18:12;;;;;;;4.40;3.05;;;;;;;21.73;56.21;99941.88;7625342;32;40698;-75
2022/08/03 04:22:31;;;;;;;5.18;3.10;;;;;;;21.95;55.46;99951.75;7624563;32;38632;-75
2022/08/03 04:26:48;;;;;;;6.15;3.10;;;;;;;22.20;54.87;99955.37;7638254;32;36921;-78
2022/08/03 04:31:07;;;;;;;4.15;2.80;;;;;;;22.33;54.48;99961.75;7625097;32;39061;-74
2022/08/03 04:35:31;;;;;;;6.35;3.15;;;;;;;22.33;54.61;99964.53;7633328;32;40836;-75
2022/08/03 04:40:12;;;;;;;4.53;2.97;;;;;;;22.42;54.39;99965.25;7632505;32;38123;-73
2022/08/03 04:44:30;;;;;;;4.50;3.28;;;;;;;22.49;54.27;99979.34;7633170;32;37257;-74
2022/08/03 04:48:46;;;;;;;4.18;3.08;;;;;;;22.61;54.07;99977.72;7619627;32;39570;-75
2022/08/03 04:53:04;;;;;;;6.70;3.35;;;;;;;22.46;54.86;99982.81;7633083;32;40765;-74
2022/08/03 04:57:20;;;;;;;7.22;3.55;;;;;;;22.52;54.62;99994.50;7632805;32;38725;-75
2022/08/03 05:01:40;;;;;;;5.70;3.53;;;;;;;22.60;54.81;99995.56;7632761;32;36310;-76
2022/08/03 05:05:57;;;;;;;10.77;3.55;;;;;;;22.45;55.78;100008.97;7632947;32;39432;-75
2022/08/03 05:10:26;;;;;;;8.75;4.25;;;;;;;22.37;56.00;100001.56;7632640;32;39894;-76
2022/08/03 05:14:42;;;;;;;7.07;4.25;;;;;;;22.28;56.42;100006.41;7632875;32;38718;-77
2022/08/03 05:18:58;;;;;;;6.30;4.03;;;;;;;21.94;57.34;100016.75;7632790;32;37847;-75
2022/08/03 05:23:14;;;;;;;8.27;3.85;;;;;;;22.23;56.64;100012.16;7632543;32;39495;-76
2022/08/03 05:27:30;;;;;;;7.03;4.12;;;;;;;22.33;56.34;100014.50;7632145;32;40837;-77
2022/08/03 05:31:47;;;;;;;5.62;3.90;;;;;;;22.32;56.42;100010.13;7632570;32;38906;-74
2022/08/03 05:36:03;;;;;;;5.60;3.90;;;;;;;22.54;55.85;100000.50;7632553;32;37836;-76
2022/08/03 05:40:19;;;;;;;6.93;3.72;;;;;;;22.64;55.81;100004.81;7631826;32;39005;-74
2022/08/03 05:44:37;;;;;;;11.07;4.18;;;;;;;22.87;55.11;100007.94;7632320;32;40505;-74
2022/08/03 05:48:53;;;;;;;7.05;3.90;;;;;;;22.95;54.58;100004.19;7632361;32;37697;-73
2022/08/03 05:53:09;;;;;;;8.45;4.75;;;;;;;23.19;54.10;100006.13;7632556;32;37022;-73
2022/08/03 05:57:25;;;;;;;6.18;3.47;;;;;;;23.44;53.70;100008.84;7632439;32;39110;-74
2022/08/03 06:01:41;;;;;;;6.80;3.78;;;;;;;23.08;55.25;100012.53;7631642;32;40858;-73
2022/08/03 06:05:57;;;;;;;4.62;3.37;;;;;;;23.02;56.53;100011.94;7631102;32;38014;-76
2022/08/03 06:10:15;;;;;;;4.78;3.67;;;;;;;23.08;56.96;100010.59;7631711;32;37641;-77
2022/08/03 06:14:51;;;;;;;4.62;3.47;;;;;;;23.50;55.24;100007.44;7631883;32;39486;-76
2022/08/03 06:19:07;;;;;;;12.07;4.35;;;;;;;23.78;54.29;100009.38;7631512;32;39613;-76
2022/08/03 06:23:23;;;;;;;12.50;4.40;;;;;;;23.83;52.68;100006.37;7631346;32;37653;-76
2022/08/03 06:27:59;;;;;;;10.20;4.25;;;;;;;24.05;53.33;100009.75;7631447;32;37250;-74
2022/08/03 06:32:15;;;;;;;7.25;4.18;;;;;;;23.77;53.73;100016.13;7630720;32;39015;-73
2022/08/03 06:36:32;;;;;;;6.62;3.80;;;;;;;23.94;53.05;100012.22;7631700;32;40137;-76
2022/08/03 06:40:48;;;;;;;7.05;4.43;;;;;;;24.10;53.44;100017.84;7631608;32;37891;-73
2022/08/03 06:45:07;;;;;;;6.50;3.87;;;;;;;24.28;53.46;100015.50;7631457;32;36841;-76
2022/08/03 06:49:24;;;;;;;6.25;3.90;;;;;;;24.25;51.35;100025.41;7630224;32;40137;-74
2022/08/03 06:53:40;;;;;;;5.28;3.95;;;;;;;24.65;51.46;100021.62;7631441;32;39934;-72
2022/08/03 06:57:56;;;;;;;7.10;4.05;;;;;;;24.95;50.69;100023.91;7630853;32;37973;-72
2022/08/03 07:02:18;;;;;;;7.30;4.20;;;;;;;25.32;50.41;100023.56;7629370;32;37099;-75
2022/08/03 07:06:36;;;;;;;8.55;4.15;;;;;;;25.47;49.73;100028.28;7629696;32;40212;-77
2022/08/03 07:10:52;;;;;;;7.00;3.97;;;;;;;25.70;49.05;100021.13;7629384;32;39875;-78
2022/08/03 07:15:08;;;;;;;5.93;3.90;;;;;;;26.00;48.50;100021.34;7630589;32;37942;-78
2022/08/03 07:19:35;;;;;;;8.32;4.30;;;;;;;26.34;47.61;100027.91;7630937;32;38145;-77
2022/08/03 07:23:51;;;;;;;7.50;4.43;;;;;;;26.45;47.08;100025.31;7630817;32;39401;-79
2022/08/03 07:28:07;;;;;;;8.60;4.45;;;;;;;25.66;48.02;100027.47;7630839;32;40811;-79
2022/08/03 07:32:24;;;;;;;6.22;4.20;;;;;;;26.16;47.51;100027.59;7630631;32;38020;-78
2022/08/03 07:36:40;;;;;;;8.18;4.78;;;;;;;26.64;47.41;100018.84;7627173;32;37961;-77
2022/08/03 07:40:56;;;;;;;7.15;4.35;;;;;;;26.81;45.90;100016.72;7627099;32;40192;-76
2022/08/03 07:45:12;;;;;;;7.37;4.57;;;;;;;26.67;46.28;100020.09;7626943;32;39966;-76
2022/08/03 07:49:31;;;;;;;9.27;4.53;;;;;;;27.45;45.23;100008.41;7628239;32;37697;-76
2022/08/03 07:53:47;;;;;;;9.48;5.20;;;;;;;27.50;45.06;100006.06;7630096;32;37025;-77
2022/08/03 07:58:11;;;;;;;8.13;4.65;;;;;;;26.28;46.14;100009.03;7630031;32;39937;-77
2022/08/03 08:02:27;;;;;;;10.48;4.90;;;;;;;27.21;44.21;99998.47;7629979;32;40550;-78
2022/08/03 08:06:43;;;;;;;7.93;4.57;;;;;;;26.63;45.50;100008.03;7629900;32;37672;-78
2022/08/03 08:10:59;;;;;;;9.40;4.37;;;;;;;27.09;43.24;100003.13;7632894;32;37141;-76
2022/08/03 08:15:15;;;;;;;11.38;5.20;;;;;;;27.13;42.11;99998.38;7633537;32;39149;-78
2022/08/03 08:19:31;;;;;;;9.73;4.65;;;;;;;27.57;41.55;100002.56;7633320;32;40835;-77
2022/08/03 08:23:53;;;;;;;6.40;4.22;;;;;;;27.55;40.03;100004.94;7633308;32;38935;-78
2022/08/03 08:28:12;;;;;;;6.62;4.50;;;;;;;28.09;38.67;100003.50;7633335;32;37159;-78
2022/08/03 08:32:48;;;;;;;6.95;3.97;;;;;;;28.04;39.00;100000.28;7633330;32;39465;-78
2022/08/03 08:37:04;;;;;;;7.62;4.62;;;;;;;28.22;36.82;100003.25;7633061;32;40020;-79
2022/08/03 08:41:20;;;;;;;6.80;4.40;;;;;;;28.61;37.19;100011.19;7632804;32;38112;-78
2022/08/03 08:45:37;;;;;;;7.80;4.80;;;;;;;28.34;37.52;99994.53;7633205;32;38126;-79
2022/08/03 08:49:54;;;;;;;15.20;4.93;;;;;;;28.76;37.59;100001.69;7619714;32;39270;-78
2022/08/03 08:54:25;;;;;;;6.72;4.32;;;;;;;28.82;38.38;100005.75;7633001;32;39930;-78
2022/08/03 08:58:53;;;;;;;9.05;4.53;;;;;;;28.41;39.38;99991.78;7632700;32;38037;-79
2022/08/03 09:03:10;;;;;;;11.50;4.07;;;;;;;29.14;38.15;99993.87;7620551;32;37583;-79
2022/08/03 09:07:37;;;;;;;6.62;4.15;;;;;;;29.62;36.55;99989.28;7632353;32;39431;-79
2022/08/03 09:11:53;;;;;;;6.12;3.97;;;;;;;29.03;37.24;99987.44;7619323;32;41169;-78
2022/08/03 09:16:23;;;;;;;5.35;3.65;;;;;;;29.46;34.94;99982.03;7632414;32;37807;-79
2022/08/03 09:20:39;;;;;;;4.57;3.42;;;;;;;29.97;34.18;99982.97;7630891;32;36711;-78
2022/08/03 09:24:57;;;;;;;5.82;3.70;;;;;;;29.92;34.24;99981.34;7632389;32;39131;-77
2022/08/03 09:29:33;;;;;;;8.60;3.85;;;;;;;29.51;33.86;99981.62;7631927;32;40195;-79
2022/08/03 09:33:49;;;;;;;5.45;3.30;;;;;;;29.54;34.41;99983.63;7631023;32;38550;-78
2022/08/03 09:38:27;;;;;;;6.15;3.80;;;;;;;29.65;32.27;99975.25;7632599;32;37699;-81
2022/08/03 09:42:56;;;;;;;7.32;3.85;;;;;;;30.08;32.90;99974.53;7632551;32;39030;-81
2022/08/03 09:47:14;;;;;;;9.88;3.92;;;;;;;30.43;32.48;99964.53;7631945;32;40788;-81
2022/08/03 09:51:30;;;;;;;6.93;3.92;;;;;;;29.83;33.66;99966.09;7631723;32;38105;-81
2022/08/03 09:56:07;;;;;;;6.87;3.97;;;;;;;30.35;32.95;99963.72;7620868;32;37422;-81
2022/08/03 10:01:06;;;;;;;8.55;3.58;;;;;;;30.00;33.25;99958.88;7632013;32;39443;-81
2022/08/03 10:05:43;;;;;;;6.40;3.72;;;;;;;30.51;33.22;99955.69;7630838;32;40869;-82
2022/08/03 10:10:00;;;;;;;5.70;3.65;;;;;;;30.73;32.80;99946.41;7630065;32;38623;-81
2022/08/03 10:14:38;;;;;;;5.03;3.62;;;;;;;30.47;33.21;99937.19;7628482;32;37667;-81
2022/08/03 10:18:56;;;;;;;6.10;4.05;;;;;;;30.34;32.76;99934.78;7628705;32;39290;-80
2022/08/03 10:23:13;;;;;;;7.62;3.90;;;;;;;30.67;32.07;99938.38;7628473;32;40003;-79
2022/08/03 10:27:39;;;;;;;10.40;4.45;;;;;;;31.20;33.51;99927.34;7631480;32;38431;-79
2022/08/03 10:31:57;;;;;;;8.65;4.32;;;;;;;31.27;32.00;99932.97;7631026;32;38300;-77
2022/08/03 10:36:15;;;;;;;6.07;3.50;;;;;;;31.04;31.04;99931.44;7631775;32;38675;-77
2022/08/03 10:40:32;;;;;;;7.20;4.05;;;;;;;31.32;31.46;99929.72;7631916;32;39905;-78
2022/08/03 10:45:11;;;;;;;;;;;;;;;31.70;30.74;99923.47;7620311;32;36471;-77
2022/08/03 10:49:28;;;;;;;5.00;3.80;;;;;;;31.88;29.79;99921.31;7631960;32;37555;-79
2022/08/03 10:53:49;;;;;;;5.45;3.55;;;;;;;32.59;29.10;99909.84;7618086;32;39992;-80
2022/08/03 10:58:10;;;;;;;4.55;3.30;;;;;;;32.32;28.22;99907.69;7630769;32;40891;-76
2022/08/03 11:03:05;;;;;;;6.03;3.45;;;;;;;32.45;28.31;99903.13;7605329;32;37935;-76
2022/08/03 11:07:22;;;;;;;4.80;3.45;;;;;;;32.64;27.54;99903.75;7605380;32;37562;-75
2022/08/03 11:11:43;;;;;;;4.28;3.17;;;;;;;33.20;27.76;99895.84;7630215;32;39470;-76
2022/08/03 11:16:02;;;;;;;4.45;3.17;;;;;;;34.01;26.83;99889.38;7631058;32;40890;-77
2022/08/03 11:20:46;;;;;;;4.55;3.37;;;;;;;33.24;26.67;99888.09;7618110;32;37905;-78
2022/08/03 11:25:03;;;;;;;5.03;3.55;;;;;;;34.01;26.51;99880.88;7630981;32;37888;-77
2022/08/03 11:29:31;;;;;;;7.60;3.45;;;;;;;33.06;26.01;99879.03;7630871;32;40061;-78
2022/08/03 11:34:10;;;;;;;9.25;3.58;;;;;;;33.67;25.71;99872.56;7630446;32;39614;-77
2022/08/03 11:38:26;;;;;;;4.07;2.92;;;;;;;34.03;24.99;99874.78;7630455;32;38768;-77
2022/08/03 11:42:46;;;;;;;11.68;3.47;;;;;;;33.88;25.48;99874.25;7631321;32;38130;-77
2022/08/03 11:47:05;;;;;;;4.40;3.25;;;;;;;34.37;23.45;99868.94;7633777;32;39534;-77
2022/08/03 11:51:25;;;;;;;4.40;3.15;;;;;;;34.23;23.70;99864.34;7633325;32;41318;-76
2022/08/03 11:55:47;;;;;;;5.65;2.80;;;;;;;33.92;23.12;99862.88;7633255;32;38050;-77
2022/08/03 12:00:19;;;;;;;4.85;3.35;;;;;;;34.66;23.38;99859.88;7633557;32;37656;-77
2022/08/03 12:05:00;;;;;;;7.45;3.10;;;;;;;35.23;21.84;99837.28;7633555;32;39470;-77
2022/08/03 12:09:16;;;;;;;6.10;3.05;;;;;;;35.57;21.39;99844.59;7633425;32;40863;-77
2022/08/03 12:13:46;;;;;;;4.62;3.10;;;;;;;36.03;22.67;99846.28;7633538;32;38713;-77
2022/08/03 12:18:23;;;;;;;4.10;2.90;;;;;;;36.43;22.67;99839.56;7632969;32;38889;-78
2022/08/03 12:22:40;;;;;;;4.28;2.60;;;;;;;37.05;22.21;99836.53;7639286;32;40608;-81
2022/08/03 12:26:57;;;;;;;4.87;2.92;;;;;;;37.36;22.36;99839.63;7607974;32;39896;-78
2022/08/03 12:31:15;;;;;;;4.75;2.90;;;;;;;37.93;20.53;99830.47;7633037;32;38860;-77
2022/08/03 12:35:32;;;;;;;4.57;2.80;;;;;;;38.27;21.08;99828.88;7632514;32;37137;-77
2022/08/03 12:39:53;;;;;;;5.00;2.72;;;;;;;38.54;18.80;99821.81;7632990;32;39312;-77
2022/08/03 12:44:30;;;;;;;3.80;3.03;;;;;;;38.64;20.74;99820.66;7631367;32;40842;-78
2022/08/03 12:49:00;;;;;;;3.97;2.62;;;;;;;38.86;19.97;99810.00;7630551;32;37928;-80
2022/08/03 12:53:27;;;;;;;4.80;2.92;;;;;;;38.33;19.32;99805.06;7631913;32;36425;-79
2022/08/03 12:57:45;;;;;;;2.90;2.58;;;;;;;38.18;19.44;99817.44;7617697;32;40135;-79
2022/08/03 13:02:03;;;;;;;3.05;2.55;;;;;;;38.55;17.89;99807.12;7631844;32;40106;-79
2022/08/03 13:06:25;;;;;;;3.85;2.53;;;;;;;38.92;19.30;99803.72;7630035;32;38650;-79
2022/08/03 13:10:41;;;;;;;5.78;3.03;;;;;;;38.11;18.21;99799.34;7631436;32;37366;-79
2022/08/03 13:14:59;;;;;;;4.60;2.67;;;;;;;37.30;19.99;99795.97;7631732;32;39395;-79
2022/08/03 13:19:15;;;;;;;4.07;2.55;;;;;;;37.92;18.69;99797.56;7629839;32;39994;-80
2022/08/03 13:23:32;;;;;;;3.22;2.72;;;;;;;38.10;18.30;99799.78;7631205;32;37931;-78
2022/08/03 13:27:48;;;;;;;6.53;2.90;;;;;;;36.72;20.97;99796.13;7632583;32;37123;-80
2022/08/03 13:32:21;;;;;;;3.30;2.47;;;;;;;36.30;20.57;99790.47;7632741;32;39569;-79
2022/08/03 13:36:37;;;;;;;6.87;2.78;;;;;;;35.33;22.13;99796.56;7632588;32;40049;-78
2022/08/03 13:41:13;;;;;;;3.62;3.10;;;;;;;36.22;21.34;99787.81;7631420;32;38179;-78
2022/08/03 13:45:30;;;;;;;4.70;2.65;;;;;;;36.69;21.32;99788.50;7632327;32;37183;-78
2022/08/03 13:49:47;;;;;;;5.00;2.90;;;;;;;36.32;21.72;99785.13;7632305;32;39571;-77
2022/08/03 13:54:18;;;;;;;3.85;2.80;;;;;;;36.11;20.97;99778.78;7632438;32;39988;-77
2022/08/03 13:58:34;;;;;;;4.28;2.78;;;;;;;36.26;20.17;99777.16;7632197;32;37928;-77
2022/08/03 14:02:50;;;;;;;4.93;2.92;;;;;;;35.81;20.72;99768.66;7632305;32;37895;-78
2022/08/03 14:07:07;;;;;;;4.00;2.47;;;;;;;36.73;19.75;99766.50;7629285;32;39649;-79
2022/08/03 14:11:22;;;;;;;5.22;2.40;;;;;;;36.52;20.07;99765.88;7632310;32;40073;-79
2022/08/03 14:15:58;;;;;;;5.47;2.90;;;;;;;36.27;19.46;99756.06;7631491;32;39151;-78
2022/08/03 14:20:16;;;;;;;4.65;2.55;;;;;;;36.72;20.12;99762.06;7631697;32;37840;-77
2022/08/03 14:24:52;;;;;;;5.80;2.62;;;;;;;37.16;19.42;99745.25;7631631;32;39703;-77
2022/08/03 14:29:08;;;;;;;3.33;2.50;;;;;;;37.55;18.78;99746.00;7630231;32;39876;-77
2022/08/03 14:33:24;;;;;;;3.55;2.70;;;;;;;37.48;18.90;99743.41;7628359;32;37817;-78
2022/08/03 14:37:41;;;;;;;4.45;2.67;;;;;;;36.83;18.60;99736.97;7629421;32;36958;-75
2022/08/03 14:41:57;;;;;;;4.85;2.83;;;;;;;37.31;18.44;99737.88;7628991;32;39396;-76
2022/08/03 14:46:13;;;;;;;4.28;2.55;;;;;;;37.08;18.17;99735.38;7631313;32;40846;-78
2022/08/03 14:50:29;;;;;;;2.97;2.33;;;;;;;36.91;18.64;99724.16;7619992;32;37924;-78
2022/08/03 14:54:59;;;;;;;4.10;2.83;;;;;;;36.62;18.79;99727.84;7611590;32;37131;-77
2022/08/03 14:59:16;;;;;;;3.10;2.50;;;;;;;37.06;18.25;99729.34;7631462;32;40231;-78
2022/08/03 15:03:32;;;;;;;2.67;2.33;;;;;;;37.12;18.74;99724.69;7630530;32;40877;-79
2022/08/03 15:07:48;;;;;;;5.10;2.72;;;;;;;37.59;18.44;99726.78;7620429;32;37992;-76
2022/08/03 15:12:05;;;;;;;2.90;2.40;;;;;;;37.75;17.59;99723.78;7630442;32;37324;-77
2022/08/03 15:16:21;;;;;;;4.15;2.40;;;;;;;37.64;17.79;99723.34;7629810;32;39020;-78
2022/08/03 15:20:45;;;;;;;4.78;2.45;;;;;;;36.61;18.37;99729.09;7630153;32;40366;-75
2022/08/03 15:25:03;;;;;;;3.28;2.65;;;;;;;36.28;19.49;99723.59;7627819;32;37973;-76
2022/08/03 15:29:39;;;;;;;3.00;2.42;;;;;;;35.84;19.01;99726.03;7627278;32;36975;-78
2022/08/03 15:34:15;;;;;;;4.43;2.58;;;;;;;36.66;19.25;99728.53;7630246;32;40457;-77
2022/08/03 15:38:31;;;;;;;4.57;2.62;;;;;;;36.06;18.89;99728.25;7629069;32;40730;-78
2022/08/03 15:42:47;;;;;;;3.47;2.47;;;;;;;36.88;19.42;99713.69;7629162;32;37600;-78
2022/08/03 15:47:03;;;;;;;2.95;2.12;;;;;;;36.56;19.19;99720.34;7629151;32;36700;-76
2022/08/03 15:51:19;;;;;;;2.58;2.30;;;;;;;35.94;19.48;99709.16;7629692;32;39893;-78
2022/08/03 15:55:35;;;;;;;3.80;2.40;;;;;;;35.53;19.78;99715.09;7628503;32;40567;-78
2022/08/03 15:59:51;;;;;;;5.00;2.50;;;;;;;35.28;20.07;99710.06;7614774;32;37568;-79
2022/08/03 16:04:08;;;;;;;2.97;2.05;;;;;;;35.18;19.88;99717.53;7628716;32;37060;-80
2022/08/03 16:08:24;;;;;;;3.35;2.50;;;;;;;35.26;19.68;99711.75;7628811;32;40243;-82
2022/08/03 16:12:41;;;;;;;8.07;2.28;;;;;;;35.06;20.28;99708.97;7628829;32;40763;-79
2022/08/03 16:16:58;;;;;;;2.67;2.20;;;;;;;34.64;21.02;99708.72;7628660;32;37933;-78
2022/08/03 16:21:15;;;;;;;3.05;2.30;;;;;;;35.33;20.41;99705.91;7628300;32;36953;-78
2022/08/03 16:25:34;;;;;;;2.67;2.22;;;;;;;35.56;20.16;99696.37;7628770;32;38970;-76
2022/08/03 16:29:51;;;;;;;3.53;2.40;;;;;;;35.73;19.62;99697.16;7630272;32;41654;-78
2022/08/03 16:34:07;;;;;;;2.70;2.28;;;;;;;35.61;19.89;99695.84;7629943;32;37998;-78
2022/08/03 16:38:23;;;;;;;5.57;2.37;;;;;;;34.89;19.67;99694.00;7618647;32;37876;-79
2022/08/03 16:42:39;;;;;;;3.72;2.15;;;;;;;35.17;21.12;99698.97;7632496;32;39349;-80
2022/08/03 16:46:55;;;;;;;4.57;2.30;;;;;;;35.13;21.58;99692.59;7632610;32;40650;-80
2022/08/03 16:51:12;;;;;;;6.47;2.33;;;;;;;35.00;22.08;99700.22;7632915;32;37738;-78
2022/08/03 16:55:29;;;;;;;3.80;2.45;;;;;;;35.15;21.44;99695.78;7633115;32;37649;-77
2022/08/03 17:00:06;;;;;;;7.62;2.70;;;;;;;35.21;21.90;99703.75;7631506;32;39382;-76
2022/08/03 17:04:23;;;;;;;3.15;2.10;;;;;;;35.31;22.12;99702.72;7630198;32;39697;-75
2022/08/03 17:08:39;;;;;;;4.85;2.47;;;;;;;35.19;22.82;99707.03;7630275;32;39230;-79
2022/08/03 17:12:55;;;;;;;8.88;2.53;;;;;;;35.07;22.70;99708.53;7631696;32;36664;-79
2022/08/03 17:17:19;;;;;;;5.40;2.33;;;;;;;35.02;22.13;99708.28;7632538;32;39501;-77
2022/08/03 17:21:38;;;;;;;7.25;2.30;;;;;;;34.97;24.10;99713.19;7632067;32;40012;-76
2022/08/03 17:25:56;;;;;;;4.18;2.28;;;;;;;34.80;23.99;99714.44;7632445;32;38618;-77
2022/08/03 17:30:19;;;;;;;4.70;2.45;;;;;;;34.63;22.97;99719.22;7620140;32;37005;-78
2022/08/03 17:34:43;;;;;;;3.97;2.35;;;;;;;34.41;24.99;99731.03;7633013;32;39141;-77
2022/08/03 17:38:59;;;;;;;6.53;2.42;;;;;;;34.43;24.78;99731.38;7632373;32;41021;-77
2022/08/03 17:43:16;;;;;;;9.52;2.62;;;;;;;34.11;23.29;99734.84;7631677;32;37895;-76
2022/08/03 17:47:52;;;;;;;8.68;2.95;;;;;;;33.99;24.41;99736.28;7631665;32;38302;-76
2022/08/03 17:52:27;;;;;;;5.50;2.40;;;;;;;33.59;24.23;99741.06;7632313;32;39281;-77
2022/08/03 17:56:58;;;;;;;3.92;1.95;;;;;;;33.26;23.43;99741.59;7619929;32;39876;-77
2022/08/03 18:06:50;;;;;;;5.05;2.80;;;;;;;32.23;25.27;99738.97;7619538;32;37850;-78
2022/08/03 18:11:15;;;;;;;6.68;3.62;;;;;;;32.18;23.01;99747.88;7618888;32;40199;-79
2022/08/03 18:15:41;;;;;;;4.45;2.50;;;;;;;31.95;24.63;99752.13;7632112;32;40785;-79
2022/08/03 18:19:58;;;;;;;2.55;1.60;;;;;;;31.54;25.89;99754.97;7613841;32;140070;-80
2022/08/03 18:24:24;;;;;;;2.17;1.60;;;;;;;31.26;25.38;99751.94;7631911;32;37685;-81
2022/08/03 18:28:42;;;;;;;2.12;1.83;;;;;;;30.98;26.41;99757.78;7632000;32;39017;-79
2022/08/03 18:33:00;;;;;;;6.60;2.25;;;;;;;30.67;26.91;99768.78;7631845;32;40875;-78
2022/08/03 18:37:37;;;;;;;13.00;3.45;;;;;;;30.62;28.03;99778.44;7631170;32;39323;-79
2022/08/03 18:42:07;;;;;;;3.85;2.65;;;;;;;30.17;31.58;99783.81;7599070;32;37209;-81
2022/08/03 18:46:49;;;;;;;5.80;2.22;;;;;;;29.79;32.72;99794.72;7631734;32;39451;-76
2022/08/03 18:51:12;;;;;;;6.50;2.70;;;;;;;29.67;32.15;99795.09;7631375;32;39645;-79
2022/08/03 18:56:09;;;;;;;21.20;2.90;;;;;;;29.23;32.17;99799.06;7620881;32;37427;-76
2022/08/03 19:00:29;;;;;;;4.03;1.95;;;;;;;29.20;31.79;99797.84;7631233;32;37944;-75
2022/08/03 19:05:08;;;;;;;13.48;8.15;;;;;;;29.02;32.28;99806.22;7630908;32;40346;-75
2022/08/03 19:09:34;;;;;;;11.43;4.95;;;;;;;28.92;31.71;99806.97;7618051;32;40735;-74
2022/08/03 19:13:58;;;;;;;5.37;2.90;;;;;;;28.72;33.05;99824.16;7631122;32;38686;-77
2022/08/03 19:18:19;;;;;;;3.22;2.58;;;;;;;28.65;33.02;99816.50;7617998;32;37826;-75
2022/08/03 19:22:38;;;;;;;4.60;2.22;;;;;;;28.40;33.82;99826.78;7604882;32;39424;-74
2022/08/03 19:27:01;;;;;;;4.85;2.20;;;;;;;28.07;34.41;99820.97;7604808;32;40797;-75
2022/08/03 19:31:17;;;;;;;9.77;2.87;;;;;;;28.31;32.34;99824.31;7604754;32;39356;-76
2022/08/03 19:35:42;;;;;;;6.30;2.15;;;;;;;28.02;32.79;99826.94;7604750;32;37666;-79
2022/08/03 19:40:11;;;;;;;3.65;2.25;;;;;;;27.79;33.16;99829.94;7604533;32;39369;-75
2022/08/03 19:44:31;;;;;;;8.20;2.30;;;;;;;27.84;32.59;99838.00;7611791;32;40585;-77
2022/08/03 19:49:13;;;;;;;3.40;2.15;;;;;;;27.48;34.05;99834.09;7630008;32;37906;-75
2022/08/03 19:53:34;;;;;;;5.68;2.50;;;;;;;27.48;33.76;99834.88;7630241;32;36651;-77
2022/08/03 19:58:00;;;;;;;4.00;2.37;;;;;;;27.46;33.83;99837.28;7629288;32;39888;-77
2022/08/03 20:02:18;;;;;;;3.45;2.28;;;;;;;27.21;35.01;99836.97;7616957;32;41079;-76
2022/08/03 20:06:42;;;;;;;3.40;2.25;;;;;;;27.22;33.81;99835.81;7620079;32;37986;-76
2022/08/03 20:11:00;;;;;;;5.10;2.25;;;;;;;27.06;34.32;99846.41;7633254;32;36545;-76
2022/08/03 20:15:22;;;;;;;3.72;1.83;;;;;;;26.94;34.02;99845.50;7633502;32;39614;-76
2022/08/03 20:19:51;;;;;;;4.97;1.95;;;;;;;26.64;34.44;99839.91;7632902;32;39493;-75
2022/08/03 20:24:12;;;;;;;5.82;2.17;;;;;;;26.44;35.15;99836.44;7620155;32;37694;-78
2022/08/03 20:28:46;;;;;;;6.53;2.00;;;;;;;26.24;35.87;99836.53;7621557;32;38036;-77
2022/08/03 20:33:06;;;;;;;4.07;1.90;;;;;;;26.34;35.53;99848.28;7620762;32;39817;-75
2022/08/03 20:37:22;;;;;;;2.33;1.70;;;;;;;26.08;35.59;99837.88;7633358;32;40776;-74
2022/08/03 20:41:39;;;;;;;3.58;1.73;;;;;;;25.86;35.56;99849.50;7632951;32;37904;-72